Time;durP1;ratioP1;P1;durP2;ratioP2;P2;SDS_P1;SDS_P2;PMS_P1;PMS_P2;Temp;Humidity;BMP_temperature;BMP_pressure;BME280_temperature;BME280_humidity;BME280_pressure;Samples;Min_cycle;Max_cycle;Signal;HPM_P1;HPM_P2
2023/06/03 00:00:08;;;;;;;0.20;0.20;;;9.60;99.90;;;;;;5068341;28;20177;-80
2023/06/03 00:02:34;;;;;;;0.20;0.20;;;9.60;99.90;;;;;;5069858;28;20177;-80
2023/06/03 00:05:01;;;;;;;0.20;0.20;;;9.60;99.90;;;;;;5075645;28;20930;-80
2023/06/03 00:07:26;;;;;;;0.20;0.20;;;9.60;99.90;;;;;;5069264;28;20182;-80
2023/06/03 00:09:52;;;;;;;0.20;0.20;;;9.50;99.90;;;;;;5068710;28;20440;-80
2023/06/03 00:12:18;;;;;;;0.20;0.20;;;9.50;99.90;;;;;;5078005;28;20657;-80
2023/06/03 00:14:43;;;;;;;0.20;0.20;;;9.50;99.90;;;;;;5074255;28;20186;-80
2023/06/03 00:17:11;;;;;;;0.20;0.20;;;9.50;99.90;;;;;;5070648;28;20307;-80
2023/06/03 00:19:37;;;;;;;0.20;0.20;;;9.50;99.90;;;;;;5073389;28;20205;-80
2023/06/03 00:22:03;;;;;;;0.20;0.20;;;9.50;99.90;;;;;;5067033;28;20444;-80
2023/06/03 00:24:28;;;;;;;0.20;0.20;;;9.50;99.90;;;;;;5066246;28;20244;-81
2023/06/03 00:26:54;;;;;;;0.20;0.20;;;9.40;99.90;;;;;;5063677;28;20451;-80
2023/06/03 00:29:19;;;;;;;0.20;0.20;;;9.30;99.90;;;;;;5076202;28;20683;-80
2023/06/03 00:31:45;;;;;;;0.20;0.20;;;9.30;99.90;;;;;;5053068;28;20273;-80
2023/06/03 00:34:11;;;;;;;0.20;0.20;;;9.30;99.90;;;;;;5069698;28;20239;-80
2023/06/03 00:36:37;;;;;;;0.20;0.20;;;9.20;99.90;;;;;;5075961;28;20472;-80
2023/06/03 00:39:02;;;;;;;0.20;0.20;;;9.20;99.90;;;;;;5076165;28;20191;-80
2023/06/03 00:41:28;;;;;;;0.20;0.20;;;9.10;99.90;;;;;;5067501;28;20543;-80
2023/06/03 00:43:53;;;;;;;0.20;0.20;;;9.10;99.90;;;;;;5084425;28;22003;-80
2023/06/03 00:46:20;;;;;;;0.20;0.20;;;9.10;99.90;;;;;;5067523;28;20185;-79
2023/06/03 00:48:46;;;;;;;0.20;0.20;;;9.00;99.90;;;;;;5065150;28;20182;-80
2023/06/03 00:51:14;;;;;;;0.30;0.30;;;9.00;99.90;;;;;;5051978;28;20412;-80
2023/06/03 00:53:39;;;;;;;0.20;0.20;;;9.00;99.90;;;;;;5069490;28;20444;-79
2023/06/03 00:56:05;;;;;;;0.20;0.20;;;8.90;99.90;;;;;;5067784;28;20476;-79
2023/06/03 00:58:32;;;;;;;0.23;0.23;;;9.00;99.90;;;;;;5051026;28;20256;-79
2023/06/03 01:00:57;;;;;;;0.20;0.20;;;9.00;99.90;;;;;;5069545;28;20431;-80
2023/06/03 01:03:23;;;;;;;0.30;0.30;;;8.90;99.90;;;;;;5080104;28;20463;-80
2023/06/03 01:06:17;;;;;;;0.20;0.20;;;8.80;99.90;;;;;;5080617;28;20184;-79
2023/06/03 01:08:45;;;;;;;0.20;0.20;;;8.80;99.90;;;;;;5082511;28;20196;-80
2023/06/03 01:11:29;;;;;;;0.30;0.30;;;8.80;99.90;;;;;;5083006;28;20947;-80
2023/06/03 01:14:10;;;;;;;0.20;0.20;;;8.80;99.90;;;;;;5078123;28;20423;-79
2023/06/03 01:16:40;;;;;;;0.20;0.20;;;8.80;99.90;;;;;;5060268;28;21129;-79
2023/06/03 01:19:14;;;;;;;0.20;0.20;;;8.80;99.90;;;;;;5066611;28;20435;-79
2023/06/03 01:21:44;;;;;;;0.20;0.20;;;8.70;99.90;;;;;;5050999;28;20452;-79
2023/06/03 01:24:20;;;;;;;0.30;0.30;;;8.80;99.90;;;;;;5050327;28;20488;-79
2023/06/03 01:26:47;;;;;;;0.30;0.30;;;8.80;99.90;;;;;;5068602;28;20456;-79
2023/06/03 01:29:12;;;;;;;0.20;0.20;;;8.70;99.90;;;;;;5082718;28;20529;-79
2023/06/03 01:31:38;;;;;;;0.20;0.20;;;8.60;99.90;;;;;;5087023;28;20542;-78
2023/06/03 01:34:05;;;;;;;0.20;0.20;;;8.60;99.90;;;;;;5055269;28;20207;-76
2023/06/03 01:36:31;;;;;;;0.20;0.20;;;8.50;99.90;;;;;;5087014;28;20209;-78
2023/06/03 01:38:57;;;;;;;0.20;0.20;;;8.40;99.90;;;;;;5079899;28;20443;-79
2023/06/03 01:41:25;;;;;;;0.20;0.20;;;8.40;99.90;;;;;;5069781;28;20460;-78
2023/06/03 01:43:51;;;;;;;0.20;0.20;;;8.40;99.90;;;;;;5067264;28;20219;-77
2023/06/03 01:46:17;;;;;;;0.20;0.20;;;8.40;99.90;;;;;;5062484;28;20451;-77
2023/06/03 01:48:43;;;;;;;0.20;0.20;;;8.30;99.90;;;;;;5086576;28;20589;-79
2023/06/03 01:51:08;;;;;;;0.20;0.20;;;8.40;99.90;;;;;;5081056;28;20448;-78
2023/06/03 01:53:34;;;;;;;0.20;0.20;;;8.30;99.90;;;;;;5070820;28;20467;-79
2023/06/03 01:55:59;;;;;;;0.20;0.20;;;8.30;99.90;;;;;;5063171;28;20217;-79
2023/06/03 01:58:25;;;;;;;0.23;0.23;;;8.20;99.90;;;;;;5064403;28;20709;-78
2023/06/03 02:00:51;;;;;;;0.27;0.27;;;8.20;99.90;;;;;;5072678;28;20288;-77
2023/06/03 02:03:16;;;;;;;0.20;0.20;;;8.20;99.90;;;;;;5075916;28;20193;-79
2023/06/03 02:05:42;;;;;;;0.30;0.30;;;8.20;99.90;;;;;;5086887;28;20258;-79
2023/06/03 02:08:07;;;;;;;0.20;0.20;;;8.20;99.90;;;;;;5075407;28;20220;-79
2023/06/03 02:10:33;;;;;;;0.20;0.20;;;8.10;99.90;;;;;;5064466;28;20196;-79
2023/06/03 02:12:58;;;;;;;0.30;0.30;;;8.10;99.90;;;;;;5063739;28;20186;-79
2023/06/03 02:15:24;;;;;;;0.20;0.20;;;8.00;99.90;;;;;;5079551;28;20682;-79
2023/06/03 02:17:49;;;;;;;0.20;0.20;;;8.00;99.90;;;;;;5087594;28;20213;-79
2023/06/03 02:20:15;;;;;;;0.20;0.20;;;8.00;99.90;;;;;;5071829;28;20205;-78
2023/06/03 02:22:41;;;;;;;0.20;0.20;;;8.00;99.90;;;;;;5079201;28;20197;-79
2023/06/03 02:25:08;;;;;;;0.23;0.23;;;7.90;99.90;;;;;;5081877;28;20181;-79
2023/06/03 02:27:35;;;;;;;0.20;0.20;;;7.90;99.90;;;;;;5081750;28;20551;-78
2023/06/03 02:30:00;;;;;;;0.30;0.30;;;8.00;99.90;;;;;;5090404;28;20418;-79
2023/06/03 02:32:26;;;;;;;0.30;0.30;;;7.90;99.90;;;;;;5085551;28;20553;-78
2023/06/03 02:34:52;;;;;;;0.20;0.20;;;8.00;99.90;;;;;;5081650;28;20217;-79
2023/06/03 02:37:17;;;;;;;0.20;0.20;;;7.90;99.90;;;;;;5071509;28;20312;-79
2023/06/03 02:39:44;;;;;;;0.30;0.30;;;8.00;99.90;;;;;;5068308;28;20185;-79
2023/06/03 02:42:10;;;;;;;0.30;0.30;;;7.90;99.90;;;;;;5071079;28;20189;-78
2023/06/03 02:44:36;;;;;;;0.30;0.30;;;7.90;99.90;;;;;;5082175;28;20519;-78
2023/06/03 02:47:02;;;;;;;0.30;0.30;;;8.00;99.90;;;;;;5053231;28;20540;-78
2023/06/03 02:49:27;;;;;;;0.20;0.20;;;7.90;99.90;;;;;;5080337;28;20646;-79
2023/06/03 02:51:54;;;;;;;0.30;0.30;;;7.90;99.90;;;;;;5086075;28;20193;-79
2023/06/03 02:54:20;;;;;;;0.20;0.20;;;7.80;99.90;;;;;;5077335;28;20182;-79
2023/06/03 02:56:46;;;;;;;0.20;0.20;;;7.80;99.90;;;;;;5068687;28;20491;-78
2023/06/03 02:59:11;;;;;;;0.20;0.20;;;7.90;99.90;;;;;;5089128;28;20483;-78
2023/06/03 03:01:38;;;;;;;0.20;0.20;;;7.90;99.90;;;;;;5073858;28;20839;-79
2023/06/03 03:04:04;;;;;;;0.30;0.30;;;7.90;99.90;;;;;;5070731;28;20330;-79
2023/06/03 03:06:29;;;;;;;0.30;0.30;;;7.80;99.90;;;;;;5069512;28;20530;-79
2023/06/03 03:08:55;;;;;;;0.27;0.27;;;7.80;99.90;;;;;;5076482;28;20179;-79
2023/06/03 03:11:20;;;;;;;0.20;0.20;;;7.80;99.90;;;;;;5076932;28;20221;-79
2023/06/03 03:13:47;;;;;;;0.20;0.20;;;7.70;99.90;;;;;;5069886;28;20189;-79
2023/06/03 03:16:13;;;;;;;0.30;0.30;;;7.70;99.90;;;;;;5070939;28;20224;-79
2023/06/03 03:18:39;;;;;;;0.20;0.20;;;7.70;99.90;;;;;;5050076;28;20818;-78
2023/06/03 03:21:06;;;;;;;0.20;0.20;;;7.80;99.90;;;;;;5069150;28;20440;-79
2023/06/03 03:23:32;;;;;;;0.20;0.20;;;7.70;99.90;;;;;;5072081;28;20478;-79
2023/06/03 03:25:58;;;;;;;0.30;0.30;;;7.80;99.90;;;;;;5078213;28;20806;-79
2023/06/03 03:28:24;;;;;;;0.30;0.30;;;7.90;99.90;;;;;;5089479;28;20442;-79
2023/06/03 03:30:50;;;;;;;0.20;0.20;;;7.80;99.90;;;;;;5079618;28;20424;-79
2023/06/03 03:33:16;;;;;;;0.30;0.30;;;7.80;99.90;;;;;;5074274;28;20481;-79
2023/06/03 03:35:43;;;;;;;0.20;0.20;;;7.80;99.90;;;;;;5056187;28;20551;-79
2023/06/03 03:38:09;;;;;;;0.20;0.20;;;7.90;99.90;;;;;;5070167;28;20892;-79
2023/06/03 03:40:38;;;;;;;0.20;0.20;;;7.80;99.90;;;;;;5072195;28;20514;-79
2023/06/03 03:43:04;;;;;;;0.30;0.30;;;7.80;99.90;;;;;;5071535;28;20428;-79
2023/06/03 03:45:36;;;;;;;0.30;0.30;;;7.90;99.90;;;;;;5065928;28;20433;-79
2023/06/03 03:48:03;;;;;;;0.30;0.30;;;7.90;99.90;;;;;;5068774;28;20986;-78
2023/06/03 03:50:45;;;;;;;0.20;0.20;;;7.80;99.90;;;;;;5057842;28;21063;-79
2023/06/03 03:53:26;;;;;;;0.20;0.20;;;7.80;99.90;;;;;;5084217;28;20467;-79
2023/06/03 03:55:53;;;;;;;0.30;0.30;;;7.70;99.90;;;;;;5084117;28;20463;-78
2023/06/03 03:58:25;;;;;;;0.30;0.30;;;7.80;99.90;;;;;;5068907;28;21240;-79
2023/06/03 04:00:51;;;;;;;0.30;0.30;;;7.90;99.90;;;;;;5070118;28;20459;-79
2023/06/03 04:03:19;;;;;;;0.30;0.30;;;8.00;99.90;;;;;;5073296;28;20485;-79
2023/06/03 04:05:46;;;;;;;0.30;0.30;;;8.00;99.90;;;;;;5052464;28;21080;-79
2023/06/03 04:08:29;;;;;;;0.30;0.30;;;8.00;99.90;;;;;;5065144;28;20950;-79
2023/06/03 04:10:58;;;;;;;0.20;0.20;;;8.00;99.90;;;;;;5068891;28;20435;-79
2023/06/03 04:13:24;;;;;;;0.30;0.30;;;8.00;99.90;;;;;;5053283;28;20570;-79
2023/06/03 04:15:51;;;;;;;0.20;0.20;;;8.10;99.90;;;;;;5074655;28;20511;-79
2023/06/03 04:18:18;;;;;;;0.20;0.20;;;8.20;99.90;;;;;;5078359;28;20454;-79
2023/06/03 04:20:44;;;;;;;0.30;0.30;;;8.20;99.90;;;;;;5048740;28;21142;-79
2023/06/03 04:23:15;;;;;;;0.27;0.27;;;8.20;99.90;;;;;;5049838;28;20444;-79
2023/06/03 04:25:41;;;;;;;0.20;0.20;;;8.30;99.90;;;;;;5064288;28;20201;-79
2023/06/03 04:28:07;;;;;;;0.30;0.30;;;8.30;99.90;;;;;;5061533;28;20501;-79
2023/06/03 04:30:35;;;;;;;0.20;0.20;;;8.40;99.90;;;;;;5071392;28;20438;-79
2023/06/03 04:33:01;;;;;;;0.20;0.20;;;8.40;99.90;;;;;;5078317;28;20653;-79
2023/06/03 04:35:26;;;;;;;0.20;0.20;;;8.50;99.90;;;;;;5065801;28;20524;-79
2023/06/03 04:37:52;;;;;;;0.20;0.20;;;8.70;99.90;;;;;;5049488;28;20217;-79
2023/06/03 04:40:17;;;;;;;0.20;0.20;;;8.70;99.90;;;;;;5072286;28;20181;-80
2023/06/03 04:42:43;;;;;;;0.20;0.20;;;8.80;99.90;;;;;;5073512;28;20191;-79
2023/06/03 04:45:09;;;;;;;0.20;0.20;;;8.90;99.90;;;;;;5072117;28;20199;-79
2023/06/03 04:47:35;;;;;;;0.20;0.20;;;9.00;99.90;;;;;;5052050;28;20552;-79
2023/06/03 04:50:04;;;;;;;0.20;0.20;;;9.10;99.90;;;;;;5065513;28;20197;-79
2023/06/03 04:52:31;;;;;;;0.20;0.20;;;9.10;99.90;;;;;;5067248;28;20466;-80
2023/06/03 04:54:57;;;;;;;0.20;0.20;;;9.20;99.90;;;;;;5067090;28;20447;-79
2023/06/03 04:57:22;;;;;;;0.20;0.20;;;9.30;99.90;;;;;;5077278;28;20509;-79
2023/06/03 04:59:48;;;;;;;0.20;0.20;;;9.40;99.90;;;;;;5076253;28;20656;-80
2023/06/03 05:02:16;;;;;;;0.20;0.20;;;9.70;99.90;;;;;;5058703;28;20194;-79
2023/06/03 05:04:42;;;;;;;0.20;0.20;;;9.80;99.90;;;;;;5061147;28;20472;-80
2023/06/03 05:07:10;;;;;;;0.20;0.20;;;9.90;99.90;;;;;;5061967;28;21252;-79
2023/06/03 05:09:35;;;;;;;0.20;0.20;;;10.10;99.90;;;;;;5066824;28;20188;-79
2023/06/03 05:12:01;;;;;;;0.20;0.20;;;10.20;99.90;;;;;;5064122;28;21013;-79
2023/06/03 05:14:26;;;;;;;0.20;0.20;;;10.40;99.90;;;;;;5040680;28;20209;-79
2023/06/03 05:16:52;;;;;;;0.20;0.20;;;10.50;99.90;;;;;;5075967;28;20297;-79
2023/06/03 05:19:17;;;;;;;0.20;0.20;;;10.70;99.90;;;;;;5048262;28;20243;-79
2023/06/03 05:21:43;;;;;;;0.20;0.20;;;10.90;99.90;;;;;;5069842;28;20193;-80
2023/06/03 05:24:08;;;;;;;0.20;0.20;;;11.10;99.90;;;;;;5055199;28;20316;-79
2023/06/03 05:26:34;;;;;;;0.20;0.20;;;11.30;99.90;;;;;;5065431;28;20547;-79
2023/06/03 05:28:59;;;;;;;0.10;0.10;;;11.40;99.90;;;;;;5068505;28;20194;-79
2023/06/03 05:31:25;;;;;;;0.20;0.20;;;11.60;99.90;;;;;;5064750;28;20194;-79
2023/06/03 05:33:50;;;;;;;0.10;0.10;;;11.70;99.90;;;;;;5067110;28;20192;-79
2023/06/03 05:36:16;;;;;;;0.10;0.10;;;11.90;99.90;;;;;;5069440;28;20213;-78
2023/06/03 05:38:41;;;;;;;0.10;0.10;;;12.00;99.90;;;;;;5050683;28;20636;-80
2023/06/03 05:41:07;;;;;;;0.10;0.10;;;12.20;99.90;;;;;;5067705;28;20207;-81
2023/06/03 05:43:32;;;;;;;0.10;0.10;;;12.30;99.90;;;;;;5068523;28;20186;-81
2023/06/03 05:45:58;;;;;;;0.10;0.10;;;12.50;99.90;;;;;;5066466;28;20201;-81
2023/06/03 05:48:24;;;;;;;0.10;0.10;;;12.60;99.90;;;;;;5063311;28;20273;-81
2023/06/03 05:50:51;;;;;;;0.10;0.10;;;12.70;99.90;;;;;;5077374;28;20428;-82
2023/06/03 05:53:20;;;;;;;0.10;0.10;;;12.80;99.90;;;;;;5065231;28;20207;-82
2023/06/03 05:55:49;;;;;;;0.10;0.10;;;12.90;99.90;;;;;;5073434;28;20442;-82
2023/06/03 05:58:14;;;;;;;0.10;0.10;;;13.00;99.90;;;;;;5081631;28;20478;-83
2023/06/03 06:00:40;;;;;;;0.10;0.10;;;13.10;99.90;;;;;;5070076;28;20437;-83
2023/06/03 06:03:06;;;;;;;0.10;0.10;;;13.20;99.90;;;;;;5056374;28;20710;-83
2023/06/03 06:05:31;;;;;;;0.10;0.10;;;13.40;99.90;;;;;;5076472;28;20335;-82
2023/06/03 06:07:57;;;;;;;0.10;0.10;;;13.60;99.90;;;;;;5070567;28;20227;-82
2023/06/03 06:10:23;;;;;;;0.10;0.10;;;13.60;99.90;;;;;;5068871;28;20190;-83
2023/06/03 06:12:49;;;;;;;0.10;0.10;;;13.70;99.90;;;;;;5074650;28;20318;-83
2023/06/03 06:15:14;;;;;;;0.10;0.10;;;13.80;99.90;;;;;;5044424;28;21008;-83
2023/06/03 06:17:42;;;;;;;0.10;0.10;;;13.90;99.90;;;;;;5075854;28;20244;-83
2023/06/03 06:20:09;;;;;;;0.10;0.10;;;14.00;99.90;;;;;;5066433;28;20249;-82
2023/06/03 06:22:35;;;;;;;0.10;0.10;;;14.10;99.90;;;;;;5055152;28;20975;-83
2023/06/03 06:25:02;;;;;;;0.10;0.10;;;14.10;99.90;;;;;;5078728;28;20491;-83
2023/06/03 06:27:29;;;;;;;0.10;0.10;;;14.20;99.90;;;;;;5059363;28;20549;-83
2023/06/03 06:29:55;;;;;;;0.10;0.10;;;14.20;99.90;;;;;;5093310;28;20414;-83
2023/06/03 06:32:25;;;;;;;0.10;0.10;;;14.30;99.90;;;;;;5073211;28;20440;-83
2023/06/03 06:34:51;;;;;;;0.10;0.10;;;14.40;99.90;;;;;;5064652;28;20227;-82
2023/06/03 06:37:20;;;;;;;0.10;0.10;;;14.50;99.90;;;;;;5069017;28;20564;-84
2023/06/03 06:39:52;;;;;;;0.10;0.10;;;14.70;99.90;;;;;;5071687;28;20561;-84
2023/06/03 06:42:28;;;;;;;0.10;0.10;;;14.80;99.90;;;;;;5060375;28;20884;-83
2023/06/03 06:44:53;;;;;;;0.10;0.10;;;14.90;99.90;;;;;;5075909;28;20523;-83
2023/06/03 06:47:32;;;;;;;0.10;0.10;;;14.90;99.90;;;;;;5071912;28;20542;-84
2023/06/03 06:49:58;;;;;;;0.10;0.10;;;14.90;99.90;;;;;;5060251;28;20178;-83
2023/06/03 06:52:25;;;;;;;0.10;0.10;;;15.10;99.90;;;;;;5058515;28;20974;-83
2023/06/03 06:54:53;;;;;;;0.10;0.10;;;15.20;99.90;;;;;;5069159;28;20676;-84
2023/06/03 06:57:23;;;;;;;0.10;0.10;;;15.20;99.90;;;;;;5080340;28;20585;-84
2023/06/03 06:59:51;;;;;;;0.10;0.10;;;15.40;99.90;;;;;;5052808;28;20505;-83
2023/06/03 07:02:17;;;;;;;0.10;0.10;;;15.40;99.90;;;;;;5082838;28;20468;-83
2023/06/03 07:04:43;;;;;;;0.10;0.10;;;15.60;99.90;;;;;;5060940;28;20885;-83
2023/06/03 07:07:09;;;;;;;0.10;0.10;;;15.50;99.90;;;;;;5057950;28;20531;-85
2023/06/03 07:09:34;;;;;;;0.10;0.10;;;15.60;99.90;;;;;;5061415;28;20182;-82
2023/06/03 07:12:00;;;;;;;0.10;0.10;;;15.80;99.90;;;;;;5055837;28;20613;-83
2023/06/03 07:14:30;;;;;;;0.10;0.10;;;16.00;99.90;;;;;;5084546;28;20196;-83
2023/06/03 07:16:56;;;;;;;0.10;0.10;;;16.10;99.90;;;;;;5086309;28;20547;-84
2023/06/03 07:19:22;;;;;;;0.10;0.10;;;16.10;99.90;;;;;;5068911;28;20444;-85
2023/06/03 07:21:48;;;;;;;0.10;0.10;;;16.20;99.90;;;;;;5055205;28;20190;-86
2023/06/03 07:24:15;;;;;;;0.10;0.10;;;16.20;99.90;;;;;;5070156;28;20979;-83
2023/06/03 07:26:40;;;;;;;0.10;0.10;;;16.10;99.90;;;;;;5065116;28;20285;-83
2023/06/03 07:29:06;;;;;;;0.10;0.10;;;16.00;99.90;;;;;;5069557;28;20534;-83
2023/06/03 07:31:35;;;;;;;0.10;0.10;;;16.20;99.90;;;;;;5069953;28;20198;-83
2023/06/03 07:34:02;;;;;;;0.10;0.10;;;16.40;99.90;;;;;;5067691;28;20637;-82
2023/06/03 07:36:28;;;;;;;0.10;0.10;;;16.30;99.90;;;;;;5072526;28;20500;-83
2023/06/03 07:39:06;;;;;;;0.10;0.10;;;16.50;99.90;;;;;;5084648;28;20495;-83
2023/06/03 07:41:39;;;;;;;0.10;0.10;;;16.50;99.90;;;;;;5064353;28;20182;-85
2023/06/03 07:44:09;;;;;;;0.10;0.10;;;16.60;98.70;;;;;;5065414;28;20451;-82
2023/06/03 07:46:46;;;;;;;0.10;0.10;;;16.50;97.60;;;;;;5058999;28;20840;-83
2023/06/03 07:49:16;;;;;;;0.10;0.10;;;16.80;98.30;;;;;;5080877;28;20924;-84
2023/06/03 07:51:45;;;;;;;0.10;0.10;;;16.80;99.70;;;;;;5069475;28;20436;-84
2023/06/03 07:54:10;;;;;;;0.10;0.10;;;16.90;99.70;;;;;;5063058;28;20432;-84
2023/06/03 07:56:36;;;;;;;0.10;0.10;;;17.20;99.90;;;;;;5068015;28;20622;-85
2023/06/03 07:59:04;;;;;;;0.10;0.10;;;17.40;99.40;;;;;;5078549;28;20804;-84
2023/06/03 08:01:29;;;;;;;0.10;0.10;;;17.30;98.60;;;;;;5082261;28;20188;-84
2023/06/03 08:03:55;;;;;;;0.10;0.10;;;17.20;99.30;;;;;;5059331;28;20440;-84
2023/06/03 08:06:28;;;;;;;0.10;0.10;;;17.30;99.90;;;;;;5067407;28;20191;-84
2023/06/03 08:08:59;;;;;;;0.10;0.10;;;17.30;99.30;;;;;;5048679;28;20841;-84
2023/06/03 08:11:25;;;;;;;0.10;0.10;;;17.60;99.90;;;;;;5054583;28;20435;-81
2023/06/03 08:13:54;;;;;;;0.10;0.10;;;17.60;97.30;;;;;;5069237;28;20438;-84
2023/06/03 08:16:20;;;;;;;0.10;0.10;;;17.70;98.50;;;;;;5050565;28;21200;-84
2023/06/03 08:18:48;;;;;;;0.10;0.10;;;17.90;99.00;;;;;;5076228;28;20444;-84
2023/06/03 08:21:14;;;;;;;0.10;0.10;;;18.00;97.40;;;;;;5051728;28;20209;-84
2023/06/03 08:23:40;;;;;;;0.10;0.10;;;18.20;97.70;;;;;;5069022;28;20448;-85
2023/06/03 08:26:08;;;;;;;0.10;0.10;;;18.20;98.20;;;;;;5067029;28;20198;-81
2023/06/03 08:28:33;;;;;;;0.10;0.10;;;18.20;96.80;;;;;;5072757;28;20431;-82
2023/06/03 08:30:59;;;;;;;0.10;0.10;;;18.20;96.30;;;;;;5050587;28;20464;-83
2023/06/03 08:33:25;;;;;;;0.00;0.00;;;18.40;98.00;;;;;;5072853;28;20243;-85
2023/06/03 08:35:50;;;;;;;0.00;0.00;;;18.30;96.90;;;;;;5073642;28;20556;-80
2023/06/03 08:38:16;;;;;;;0.00;0.00;;;18.50;97.40;;;;;;5070581;28;20220;-84
2023/06/03 08:40:47;;;;;;;0.00;0.00;;;18.80;97.80;;;;;;5046123;28;20194;-83
2023/06/03 08:43:14;;;;;;;0.10;0.10;;;18.90;95.50;;;;;;5058288;28;20833;-83
2023/06/03 08:46:20;;;;;;;0.10;0.10;;;18.90;96.90;;;;;;5066044;28;20522;-84
2023/06/03 08:49:07;;;;;;;0.10;0.10;;;18.90;96.50;;;;;;5035349;28;20436;-84
2023/06/03 08:51:41;;;;;;;0.10;0.10;;;18.80;95.60;;;;;;5057298;28;20501;-84
2023/06/03 08:54:14;;;;;;;0.10;0.10;;;18.80;93.90;;;;;;5063836;28;20443;-82
2023/06/03 08:56:45;;;;;;;0.10;0.10;;;19.10;95.60;;;;;;5063877;28;20483;-81
2023/06/03 08:59:15;;;;;;;0.10;0.00;;;19.20;91.60;;;;;;5058829;28;20471;-82
2023/06/03 09:01:45;;;;;;;0.10;0.10;;;19.20;94.60;;;;;;5068593;28;20443;-83
2023/06/03 09:04:13;;;;;;;0.10;0.10;;;19.40;93.90;;;;;;5061868;28;21205;-83
2023/06/03 09:06:44;;;;;;;0.10;0.10;;;19.50;93.80;;;;;;5047848;28;20447;-82
2023/06/03 09:09:11;;;;;;;0.10;0.10;;;19.60;94.70;;;;;;5061879;28;20464;-83
2023/06/03 09:11:38;;;;;;;0.10;0.00;;;19.70;94.50;;;;;;5044758;28;20960;-82
2023/06/03 09:14:04;;;;;;;0.10;0.00;;;19.80;92.30;;;;;;5054589;28;20839;-83
2023/06/03 09:16:32;;;;;;;0.10;0.10;;;19.80;90.40;;;;;;5067621;28;20472;-82
2023/06/03 09:18:57;;;;;;;0.10;0.10;;;19.90;91.60;;;;;;5057921;28;20450;-81
2023/06/03 09:21:24;;;;;;;0.10;0.00;;;19.80;91.20;;;;;;5066775;28;20527;-85
2023/06/03 09:23:51;;;;;;;0.10;0.10;;;20.10;92.30;;;;;;5057919;28;21072;-81
2023/06/03 09:26:17;;;;;;;0.10;0.00;;;20.00;93.20;;;;;;5076219;28;20977;-83
2023/06/03 09:28:44;;;;;;;0.10;0.10;;;20.10;93.40;;;;;;5062111;28;20551;-83
2023/06/03 09:31:10;;;;;;;0.10;0.00;;;20.10;92.00;;;;;;5066315;28;20454;-79
2023/06/03 09:33:36;;;;;;;0.10;0.00;;;20.00;89.80;;;;;;5083637;28;20440;-79
2023/06/03 09:36:06;;;;;;;0.10;0.00;;;19.90;88.70;;;;;;5067107;28;20777;-80
2023/06/03 09:38:51;;;;;;;0.10;0.00;;;20.00;89.20;;;;;;5074605;28;20202;-83
2023/06/03 09:41:19;;;;;;;0.10;0.10;;;20.30;91.10;;;;;;5067338;28;20526;-84
2023/06/03 09:44:01;;;;;;;0.10;0.00;;;20.60;91.10;;;;;;5065832;28;20958;-84
2023/06/03 09:46:29;;;;;;;0.10;0.00;;;20.50;89.40;;;;;;5046309;28;20527;-83
2023/06/03 09:49:09;;;;;;;0.10;0.00;;;20.30;88.10;;;;;;5073787;28;20479;-82
2023/06/03 09:51:41;;;;;;;0.10;0.00;;;20.50;90.00;;;;;;5047878;28;20852;-82
2023/06/03 09:54:15;;;;;;;0.10;0.00;;;20.80;91.70;;;;;;5070690;28;20960;-83
2023/06/03 09:56:42;;;;;;;0.10;0.10;;;20.90;89.00;;;;;;5069873;28;20482;-83
2023/06/03 09:59:29;;;;;;;0.10;0.00;;;21.00;91.40;;;;;;5051076;28;20511;-83
2023/06/03 10:01:55;;;;;;;0.10;0.00;;;21.20;90.00;;;;;;5075866;28;20984;-85
2023/06/03 10:04:36;;;;;;;0.10;0.00;;;21.70;90.30;;;;;;5049934;28;20448;-84
2023/06/03 10:07:13;;;;;;;0.10;0.00;;;21.60;91.20;;;;;;5074496;28;20202;-84
2023/06/03 10:09:44;;;;;;;0.10;0.00;;;21.70;84.10;;;;;;5085823;28;20534;-83
2023/06/03 10:12:11;;;;;;;0.10;0.00;;;21.80;88.60;;;;;;5074050;28;20451;-83
2023/06/03 10:14:50;;;;;;;0.10;0.00;;;22.00;88.20;;;;;;5067032;28;20534;-83
2023/06/03 10:17:17;;;;;;;0.10;0.00;;;21.10;81.80;;;;;;5061252;28;20483;-83
2023/06/03 10:19:44;;;;;;;0.10;0.00;;;21.40;89.40;;;;;;5068205;28;20492;-83
2023/06/03 10:22:16;;;;;;;0.10;0.00;;;21.80;83.50;;;;;;5084909;28;20459;-87
2023/06/03 10:24:43;;;;;;;0.10;0.00;;;21.90;86.60;;;;;;5074871;28;20440;-87
2023/06/03 10:27:10;;;;;;;0.10;0.00;;;22.40;87.60;;;;;;5079100;28;20451;-87
2023/06/03 10:29:36;;;;;;;0.10;0.00;;;22.40;86.70;;;;;;5067477;28;20802;-85
2023/06/03 10:32:04;;;;;;;0.10;0.10;;;22.60;84.10;;;;;;5074853;28;21091;-88
2023/06/03 10:34:31;;;;;;;0.10;0.00;;;22.50;82.00;;;;;;5061689;28;20436;-86
2023/06/03 10:36:57;;;;;;;0.10;0.00;;;22.70;83.50;;;;;;5072989;28;20523;-85
2023/06/03 10:39:25;;;;;;;0.10;0.00;;;23.10;82.00;;;;;;5078597;28;20461;-86
2023/06/03 10:41:54;;;;;;;0.10;0.00;;;23.10;84.40;;;;;;5081854;28;20424;-88
2023/06/03 10:44:20;;;;;;;0.10;0.00;;;23.40;83.00;;;;;;5066529;28;20439;-88
2023/06/03 10:47:03;;;;;;;0.10;0.00;;;23.00;77.90;;;;;;5071018;28;20447;-85
2023/06/03 10:49:34;;;;;;;0.10;0.00;;;22.50;75.70;;;;;;5068346;28;20186;-88
2023/06/03 10:52:09;;;;;;;0.10;0.00;;;23.40;80.20;;;;;;5066314;28;20458;-88
2023/06/03 10:54:57;;;;;;;0.10;0.00;;;23.50;77.50;;;;;;5070972;28;20435;-88
2023/06/03 10:57:31;;;;;;;0.10;0.00;;;23.40;81.20;;;;;;5064999;28;20933;-85
2023/06/03 10:59:57;;;;;;;0.10;0.00;;;24.20;84.10;;;;;;5053017;28;20449;-86
2023/06/03 11:02:22;;;;;;;0.10;0.00;;;24.20;80.90;;;;;;5071265;28;20502;-87
2023/06/03 11:05:08;;;;;;;0.10;0.00;;;24.50;80.00;;;;;;5071256;28;20190;-86
2023/06/03 11:07:33;;;;;;;0.10;0.00;;;23.80;72.80;;;;;;5063507;28;20203;-87
2023/06/03 11:10:00;;;;;;;0.10;0.00;;;24.40;80.00;;;;;;5064654;28;20486;-85
2023/06/03 11:12:48;;;;;;;0.10;0.00;;;24.60;78.80;;;;;;5061348;28;20280;-85
2023/06/03 11:15:14;;;;;;;0.10;0.00;;;24.50;77.60;;;;;;5068072;28;20990;-85
2023/06/03 11:17:41;;;;;;;0.10;0.00;;;24.50;72.90;;;;;;5069223;28;20483;-85
2023/06/03 11:20:08;;;;;;;0.00;0.00;;;25.10;78.20;;;;;;5080867;28;20181;-84
2023/06/03 11:22:37;;;;;;;0.03;0.00;;;24.60;77.10;;;;;;5064144;28;20939;-85
2023/06/03 11:25:03;;;;;;;0.00;0.00;;;24.80;79.90;;;;;;5053121;28;20428;-85
2023/06/03 11:27:30;;;;;;;0.00;0.00;;;24.80;75.70;;;;;;5065243;28;20530;-84
2023/06/03 11:29:59;;;;;;;0.00;0.00;;;24.80;78.50;;;;;;5048803;28;20432;-82
2023/06/03 11:32:29;;;;;;;0.00;0.00;;;24.90;75.50;;;;;;5065306;28;20441;-84
2023/06/03 11:35:04;;;;;;;0.00;0.00;;;25.40;74.60;;;;;;5067954;28;20432;-83
2023/06/03 11:37:48;;;;;;;0.00;0.00;;;25.10;73.60;;;;;;5059800;28;20619;-85
2023/06/03 11:40:17;;;;;;;0.00;0.00;;;25.30;74.30;;;;;;5061365;28;20440;-83
2023/06/03 11:42:49;;;;;;;0.00;0.00;;;25.20;72.30;;;;;;5069641;28;20469;-85
2023/06/03 11:45:17;;;;;;;0.00;0.00;;;24.70;72.40;;;;;;5066800;28;21007;-85
2023/06/03 11:47:49;;;;;;;0.00;0.00;;;25.00;74.40;;;;;;5065989;28;20721;-85
2023/06/03 11:50:15;;;;;;;0.00;0.00;;;25.60;73.00;;;;;;5063395;28;20799;-85
2023/06/03 11:52:41;;;;;;;0.00;0.00;;;26.10;76.40;;;;;;5048616;28;21178;-85
2023/06/03 11:55:08;;;;;;;0.00;0.00;;;25.60;72.50;;;;;;5069684;28;20454;-84
2023/06/03 11:57:33;;;;;;;0.00;0.00;;;25.40;72.00;;;;;;5065000;28;20220;-84
2023/06/03 12:00:09;;;;;;;0.00;0.00;;;25.90;73.40;;;;;;5049494;28;20810;-85
2023/06/03 12:02:42;;;;;;;0.00;0.00;;;25.90;75.30;;;;;;5069821;28;20177;-84
2023/06/03 12:05:08;;;;;;;0.00;0.00;;;25.50;72.90;;;;;;5066422;28;20444;-83
2023/06/03 12:07:33;;;;;;;0.00;0.00;;;25.10;74.90;;;;;;5067948;28;20440;-85
2023/06/03 12:10:00;;;;;;;0.00;0.00;;;25.10;70.00;;;;;;5072884;28;20202;-84
2023/06/03 12:12:25;;;;;;;0.00;0.00;;;25.10;72.30;;;;;;5050672;28;20344;-86
2023/06/03 12:14:51;;;;;;;0.00;0.00;;;25.30;68.80;;;;;;5057731;28;24059;-85
2023/06/03 12:17:19;;;;;;;0.00;0.00;;;25.60;74.00;;;;;;5051002;28;20238;-86
2023/06/03 12:19:47;;;;;;;0.00;0.00;;;26.10;72.30;;;;;;5030751;28;20197;-86
2023/06/03 12:22:19;;;;;;;0.00;0.00;;;26.00;73.50;;;;;;5051411;28;20482;-85
2023/06/03 12:24:44;;;;;;;0.00;0.00;;;25.60;71.80;;;;;;5051329;28;20493;-86
2023/06/03 12:27:11;;;;;;;0.00;0.00;;;26.30;71.20;;;;;;5057453;28;20444;-84
2023/06/03 12:29:41;;;;;;;0.00;0.00;;;26.60;73.40;;;;;;5038340;28;20186;-84
2023/06/03 12:32:07;;;;;;;0.00;0.00;;;26.80;66.00;;;;;;5070408;28;20436;-83
2023/06/03 12:34:34;;;;;;;0.00;0.00;;;26.80;66.80;;;;;;5070203;28;20796;-83
2023/06/03 12:37:01;;;;;;;0.00;0.00;;;26.20;69.00;;;;;;5072219;28;20301;-84
2023/06/03 12:39:48;;;;;;;0.00;0.00;;;26.30;69.60;;;;;;5080845;28;20942;-84
2023/06/03 12:42:15;;;;;;;0.00;0.00;;;26.20;72.60;;;;;;5056296;28;20452;-84
2023/06/03 12:44:52;;;;;;;0.00;0.00;;;25.90;69.40;;;;;;5075907;28;20446;-84
2023/06/03 12:47:20;;;;;;;0.00;0.00;;;25.70;68.50;;;;;;5053618;28;20451;-85
2023/06/03 12:50:02;;;;;;;0.00;0.00;;;26.00;73.10;;;;;;5065147;28;20455;-83
2023/06/03 12:52:28;;;;;;;0.00;0.00;;;25.60;69.00;;;;;;5066983;28;20865;-85
2023/06/03 12:54:54;;;;;;;0.00;0.00;;;25.90;70.70;;;;;;5065589;28;20448;-82